createdAt,value
2018-02-12T00:01:04.131Z,96981.61
2018-02-12T00:03:31.801Z,96988.80
2018-02-12T00:05:59.520Z,96985.47
2018-02-12T00:08:27.038Z,96991.30
2018-02-12T00:10:54.636Z,97002.38
2018-02-12T00:13:22.202Z,97010.77
2018-02-12T00:15:49.702Z,97015.30
2018-02-12T00:18:17.174Z,97012.51
2018-02-12T00:20:44.692Z,97016.80
2018-02-12T00:23:12.277Z,97006.84
2018-02-12T00:25:39.879Z,97012.82
2018-02-12T00:28:07.367Z,97011.72
2018-02-12T00:30:34.864Z,96996.38
2018-02-12T00:33:02.389Z,96997.86
2018-02-12T00:35:29.885Z,96986.12
2018-02-12T00:37:57.399Z,96982.16
2018-02-12T00:40:24.876Z,96990.25
2018-02-12T00:42:53.003Z,97002.34
2018-02-12T00:45:20.534Z,97001.26
2018-02-12T00:47:48.031Z,96998.55
2018-02-12T00:50:15.998Z,97001.62
2018-02-12T00:52:43.614Z,97013.03
2018-02-12T00:55:11.223Z,97016.55
2018-02-12T00:57:38.724Z,97017.29
2018-02-12T01:00:06.234Z,97015.09
2018-02-12T01:02:33.731Z,97019.99
2018-02-12T01:05:01.263Z,97031.81
2018-02-12T01:07:28.789Z,97030.17
2018-02-12T01:09:56.266Z,97031.70
2018-02-12T01:12:23.760Z,97026.95
2018-02-12T01:14:51.237Z,97023.23
2018-02-12T01:17:18.741Z,97021.13
2018-02-12T01:19:47.050Z,97023.83
2018-02-12T01:22:14.674Z,97022.11
2018-02-12T01:24:42.217Z,97034.50
2018-02-12T01:27:09.867Z,97028.80
2018-02-12T01:29:37.486Z,97044.64
2018-02-12T01:32:05.053Z,97044.77
2018-02-12T01:34:32.589Z,97046.11
2018-02-12T01:37:00.064Z,97049.19
2018-02-12T01:39:27.565Z,97043.97
2018-02-12T01:41:55.133Z,97042.52
2018-02-12T01:44:22.706Z,97044.38
2018-02-12T01:46:50.186Z,97042.12
2018-02-12T01:49:17.699Z,97044.52
2018-02-12T01:51:45.228Z,97045.86
2018-02-12T01:54:12.714Z,97046.79
2018-02-12T01:56:40.293Z,97053.17
2018-02-12T01:59:07.832Z,97050.65
2018-02-12T02:01:35.349Z,97048.23
2018-02-12T02:04:02.823Z,97032.80
2018-02-12T02:06:30.336Z,97052.77
2018-02-12T02:08:57.813Z,97058.49
2018-02-12T02:11:25.330Z,97060.47
2018-02-12T02:13:52.858Z,97059.53
2018-02-12T02:16:20.335Z,97058.73
2018-02-12T02:18:47.869Z,97063.94
2018-02-12T02:21:15.359Z,97073.53
2018-02-12T02:23:42.864Z,97068.20
2018-02-12T02:26:10.339Z,97070.73
2018-02-12T02:28:37.877Z,97070.46
2018-02-12T02:31:05.355Z,97072.06
2018-02-12T02:33:32.834Z,97080.05
2018-02-12T02:36:00.342Z,97073.55
2018-02-12T02:38:27.987Z,97074.61
2018-02-12T02:40:55.571Z,97081.80
2018-02-12T02:43:23.142Z,97080.20
2018-02-12T02:45:50.736Z,97078.34
2018-02-12T02:48:18.368Z,97083.39
2018-02-12T02:50:45.932Z,97075.01
2018-02-12T02:53:13.429Z,97070.88
2018-02-12T02:55:40.902Z,97066.86
2018-02-12T02:58:08.482Z,97063.39
2018-02-12T03:00:36.064Z,97069.53
2018-02-12T03:03:03.570Z,97068.50
2018-02-12T03:05:31.145Z,97063.42
2018-02-12T03:07:58.667Z,97053.70
2018-02-12T03:10:26.641Z,97057.58
2018-02-12T03:12:54.169Z,97060.74
2018-02-12T03:15:21.854Z,97066.21
2018-02-12T03:17:49.397Z,97071.94
2018-02-12T03:20:16.990Z,97074.98
2018-02-12T03:22:44.647Z,97074.73
2018-02-12T03:25:12.244Z,97084.04
2018-02-12T03:27:39.726Z,97087.23
2018-02-12T03:30:07.224Z,97083.27
2018-02-12T03:32:34.720Z,97087.91
2018-02-12T03:35:02.260Z,97087.11
2018-02-12T03:37:29.749Z,97087.26
2018-02-12T03:39:57.258Z,97087.66
2018-02-12T03:42:24.745Z,97089.37
2018-02-12T03:44:52.224Z,97089.50
2018-02-12T03:47:19.744Z,97093.50
2018-02-12T03:49:47.220Z,97098.17
2018-02-12T03:52:14.720Z,97095.10
2018-02-12T03:54:42.236Z,97103.48
2018-02-12T03:57:09.910Z,97111.02
2018-02-12T03:59:37.383Z,97115.16
2018-02-12T04:02:04.881Z,97117.16
2018-02-12T04:04:32.381Z,97118.11
2018-02-12T04:06:59.867Z,97124.91
2018-02-12T04:09:27.982Z,97126.88
2018-02-12T04:11:55.445Z,97129.43
2018-02-12T04:14:22.995Z,97133.58
2018-02-12T04:16:50.499Z,97130.13
2018-02-12T04:19:18.021Z,97133.14
2018-02-12T04:21:45.506Z,97134.20
2018-02-12T04:24:13.242Z,97131.27
2018-02-12T04:26:40.791Z,97130.32
2018-02-12T04:29:08.293Z,97128.81
2018-02-12T04:31:35.810Z,97126.83
2018-02-12T04:34:03.308Z,97136.70
2018-02-12T04:36:30.796Z,97134.84
2018-02-12T04:38:58.292Z,97124.56
2018-02-12T04:41:25.813Z,97121.21
2018-02-12T04:43:53.333Z,97118.43
2018-02-12T04:46:20.871Z,97119.51
2018-02-12T04:48:48.996Z,97125.64
2018-02-12T04:51:16.508Z,97124.06
2018-02-12T04:53:44.604Z,97122.71
2018-02-12T04:56:12.134Z,97125.00
2018-02-12T04:58:39.626Z,97126.63
2018-02-12T05:01:07.299Z,97131.56
2018-02-12T05:03:34.798Z,97135.42
2018-02-12T05:06:02.290Z,97138.77
2018-02-12T05:08:29.765Z,97140.10
2018-02-12T05:10:57.268Z,97145.97
2018-02-12T05:13:24.747Z,97144.34
2018-02-12T05:15:52.252Z,97153.25
2018-02-12T05:18:19.796Z,97148.98
2018-02-12T05:20:47.363Z,97151.34
2018-02-12T05:23:14.866Z,97155.88
2018-02-12T05:25:42.355Z,97160.02
2018-02-12T05:28:09.921Z,97158.64
2018-02-12T05:30:37.490Z,97163.91
2018-02-12T05:33:04.990Z,97169.48
2018-02-12T05:35:32.508Z,97154.00
2018-02-12T05:38:00.029Z,97172.61
2018-02-12T05:40:27.595Z,97165.81
2018-02-12T05:42:55.142Z,97174.88
2018-02-12T05:45:22.655Z,97173.73
2018-02-12T05:47:50.149Z,97177.03
2018-02-12T05:50:17.682Z,97187.97
2018-02-12T05:52:45.698Z,97187.44
2018-02-12T05:55:13.276Z,97190.92
2018-02-12T05:57:40.782Z,97191.40
2018-02-12T06:00:08.342Z,97191.48
2018-02-12T06:02:35.829Z,97198.73
2018-02-12T06:05:03.322Z,97196.41
2018-02-12T06:07:30.842Z,97204.75
2018-02-12T06:09:58.323Z,97208.62
2018-02-12T06:12:25.840Z,97212.26
2018-02-12T06:14:53.346Z,97215.95
2018-02-12T06:17:20.958Z,97221.54
2018-02-12T06:19:48.451Z,97240.77
2018-02-12T06:22:15.958Z,97241.95
2018-02-12T06:24:43.540Z,97249.20
2018-02-12T06:27:11.016Z,97249.75
2018-02-12T06:29:38.512Z,97256.79
2018-02-12T06:32:05.982Z,97264.23
2018-02-12T06:34:33.522Z,97275.42
2018-02-12T06:37:01.014Z,97284.94
2018-02-12T06:42:02.482Z,97290.81
2018-02-12T06:44:29.996Z,97295.82
2018-02-12T06:46:57.568Z,97289.61
2018-02-12T06:49:25.110Z,97292.23
2018-02-12T06:51:52.640Z,97291.50
2018-02-12T06:54:20.144Z,97292.05
2018-02-12T06:56:47.644Z,97298.67
2018-02-12T06:59:15.132Z,97301.73
2018-02-12T07:01:42.656Z,97305.72
2018-02-12T07:04:10.142Z,97307.05
2018-02-12T07:06:37.649Z,97311.92
2018-02-12T07:09:05.154Z,97313.62
2018-02-12T07:11:32.643Z,97317.86
2018-02-12T07:14:00.145Z,97325.69
2018-02-12T07:16:27.622Z,97332.77
2018-02-12T07:18:55.159Z,97331.64
2018-02-12T07:21:22.632Z,97330.88
2018-02-12T07:23:50.105Z,97330.39
2018-02-12T07:26:17.634Z,97330.05
2018-02-12T07:28:45.127Z,97330.21
2018-02-12T07:31:12.645Z,97327.88
2018-02-12T07:33:40.117Z,97328.41
2018-02-12T07:36:07.630Z,97332.05
2018-02-12T07:38:35.145Z,97334.86
2018-02-12T07:41:02.673Z,97334.06
2018-02-12T07:43:30.177Z,97343.05
2018-02-12T07:45:57.664Z,97345.38
2018-02-12T07:48:25.174Z,97354.78
2018-02-12T07:50:52.753Z,97364.37
2018-02-12T07:53:20.255Z,97362.89
2018-02-12T07:55:47.783Z,97371.42
2018-02-12T07:58:15.899Z,97378.09
2018-02-12T08:00:43.403Z,97381.12
2018-02-12T08:03:10.915Z,97378.81
2018-02-12T08:05:38.467Z,97380.79
2018-02-12T08:08:06.089Z,97384.77
2018-02-12T08:10:33.630Z,97392.71
2018-02-12T08:13:01.142Z,97396.73
2018-02-12T08:15:28.671Z,97388.88
2018-02-12T08:17:56.164Z,97409.33
2018-02-12T08:20:23.686Z,97406.05
2018-02-12T08:22:51.199Z,97407.72
2018-02-12T08:25:18.669Z,97408.86
2018-02-12T08:27:46.170Z,97416.39
2018-02-12T08:30:13.644Z,97419.75
2018-02-12T08:32:41.149Z,97422.07
2018-02-12T08:35:08.636Z,97422.98
2018-02-12T08:37:36.163Z,97428.19
2018-02-12T08:40:03.663Z,97434.34
2018-02-12T08:42:31.157Z,97437.88
2018-02-12T08:44:58.787Z,97444.22
2018-02-12T08:47:26.279Z,97443.50
2018-02-12T08:49:53.792Z,97442.97
2018-02-12T08:52:21.297Z,97445.64
2018-02-12T08:54:49.437Z,97439.98
2018-02-12T08:57:17.312Z,97448.73
2018-02-12T08:59:44.784Z,97446.55
2018-02-12T09:02:12.377Z,97457.36
2018-02-12T09:04:39.835Z,97457.34
2018-02-12T09:07:07.380Z,97459.17
2018-02-12T09:09:34.875Z,97456.89
2018-02-12T09:12:02.384Z,97463.97
2018-02-12T09:14:29.872Z,97465.97
2018-02-12T09:16:57.450Z,97474.34
2018-02-12T09:19:24.925Z,97473.45
2018-02-12T09:21:52.411Z,97474.34
2018-02-12T09:24:19.906Z,97480.48
2018-02-12T09:26:47.405Z,97480.61
2018-02-12T09:29:15.179Z,97482.78
2018-02-12T09:31:42.684Z,97485.98
2018-02-12T09:34:10.182Z,97487.77
2018-02-12T09:36:37.690Z,97493.13
2018-02-12T09:39:05.232Z,97490.99
2018-02-12T09:41:32.760Z,97491.92
2018-02-12T09:44:00.261Z,97494.91
2018-02-12T09:46:27.886Z,97493.09
2018-02-12T09:48:55.402Z,97492.91
2018-02-12T09:51:22.988Z,97499.75
2018-02-12T09:53:50.553Z,97498.70
2018-02-12T09:56:18.140Z,97502.02
2018-02-12T09:58:45.790Z,97500.01
2018-02-12T10:01:13.388Z,97501.18
2018-02-12T10:03:40.890Z,97506.95
2018-02-12T10:06:08.519Z,97516.00
2018-02-12T10:08:36.040Z,97520.73
2018-02-12T10:11:03.533Z,97518.25
2018-02-12T10:13:31.055Z,97520.04
2018-02-12T10:15:58.580Z,97526.43
2018-02-12T10:18:26.073Z,97529.91
2018-02-12T10:20:53.729Z,97531.86
2018-02-12T10:23:21.255Z,97532.45
2018-02-12T10:25:48.796Z,97537.28
2018-02-12T10:28:16.285Z,97548.10
2018-02-12T10:30:43.794Z,97545.15
2018-02-12T10:33:11.291Z,97555.46
2018-02-12T10:35:38.862Z,97553.38
2018-02-12T10:38:06.962Z,97558.12
2018-02-12T10:40:34.507Z,97560.67
2018-02-12T10:43:02.017Z,97556.69
2018-02-12T10:45:29.516Z,97556.36
2018-02-12T10:47:57.038Z,97553.93
2018-02-12T10:50:24.540Z,97564.21
2018-02-12T10:52:52.082Z,97560.22
2018-02-12T10:55:19.570Z,97557.42
2018-02-12T10:57:47.124Z,97553.71
2018-02-12T11:00:14.611Z,97559.35
2018-02-12T11:02:42.158Z,97566.42
2018-02-12T11:05:09.646Z,97559.59
2018-02-12T11:07:37.414Z,97561.25
2018-02-12T11:10:04.924Z,97560.30
2018-02-12T11:12:32.445Z,97565.42
2018-02-12T11:14:59.950Z,97563.95
2018-02-12T11:17:27.448Z,97569.52
2018-02-12T11:19:54.974Z,97563.08
2018-02-12T11:22:22.490Z,97556.52
2018-02-12T11:24:50.008Z,97564.73
2018-02-12T11:27:17.530Z,97569.13
2018-02-12T11:29:45.020Z,97567.27
2018-02-12T11:32:12.658Z,97569.09
2018-02-12T11:34:40.145Z,97563.10
2018-02-12T11:37:07.752Z,97571.64
2018-02-12T11:39:35.286Z,97561.67
2018-02-12T11:42:02.836Z,97569.37
2018-02-12T11:44:30.368Z,97571.36
2018-02-12T11:46:57.890Z,97565.70
2018-02-12T11:49:25.414Z,97571.38
2018-02-12T11:51:52.927Z,97565.94
2018-02-12T11:54:20.452Z,97563.89
2018-02-12T11:56:48.088Z,97566.45
2018-02-12T11:59:15.611Z,97567.50
2018-02-12T12:01:43.142Z,97569.34
2018-02-12T12:04:10.714Z,97565.09
2018-02-12T12:06:38.574Z,97557.08
2018-02-12T12:09:06.130Z,97563.45
2018-02-12T12:11:33.572Z,97564.23
2018-02-12T12:14:01.159Z,97563.33
2018-02-12T12:16:28.651Z,97562.25
2018-02-12T12:18:56.170Z,97559.16
2018-02-12T12:21:23.656Z,97560.41
2018-02-12T12:23:51.204Z,97558.98
2018-02-12T12:26:18.710Z,97553.13
2018-02-12T12:28:46.203Z,97552.98
2018-02-12T12:31:13.796Z,97553.92
2018-02-12T12:33:41.308Z,97544.27
2018-02-12T12:36:08.828Z,97546.05
2018-02-12T12:38:36.320Z,97548.91
2018-02-12T12:41:03.885Z,97545.59
2018-02-12T12:43:31.462Z,97548.34
2018-02-12T12:45:59.036Z,97544.72
2018-02-12T12:48:26.576Z,97549.79
2018-02-12T12:50:54.072Z,97550.82
2018-02-12T12:53:21.635Z,97543.17
2018-02-12T12:55:49.329Z,97541.09
2018-02-12T12:58:16.846Z,97549.58
2018-02-12T13:00:44.322Z,97541.84
2018-02-12T13:03:11.852Z,97539.79
2018-02-12T13:05:39.341Z,97540.32
2018-02-12T13:08:06.856Z,97542.05
2018-02-12T13:10:34.407Z,97542.80
2018-02-12T13:13:01.924Z,97541.05
2018-02-12T13:15:29.453Z,97540.03
2018-02-12T13:17:56.971Z,97545.84
2018-02-12T13:20:24.551Z,97546.38
2018-02-12T13:22:52.036Z,97543.36
2018-02-12T13:25:19.578Z,97544.21
2018-02-12T13:27:47.082Z,97548.27
2018-02-12T13:30:14.572Z,97548.66
2018-02-12T13:32:42.144Z,97555.20
2018-02-12T13:35:09.705Z,97548.97
2018-02-12T13:37:37.327Z,97558.86
2018-02-12T13:40:04.908Z,97560.05
2018-02-12T13:42:33.474Z,97565.98
2018-02-12T13:45:00.992Z,97558.89
2018-02-12T13:47:28.516Z,97561.09
2018-02-12T13:49:56.068Z,97558.34
2018-02-12T13:52:23.590Z,97557.28
2018-02-12T13:54:51.134Z,97566.70
2018-02-12T13:57:18.638Z,97571.91
2018-02-12T13:59:46.150Z,97575.39
2018-02-12T14:02:13.621Z,97582.66
2018-02-12T14:04:41.995Z,97579.20
2018-02-12T14:07:09.949Z,97598.42
2018-02-12T14:09:37.493Z,97597.63
2018-02-12T14:12:04.983Z,97609.36
2018-02-12T14:14:32.463Z,97617.17
2018-02-12T14:16:59.956Z,97614.72
2018-02-12T14:19:27.443Z,97608.59
2018-02-12T14:21:54.956Z,97616.03
2018-02-12T14:24:22.481Z,97615.83
2018-02-12T14:26:50.023Z,97616.48
2018-02-12T14:29:17.535Z,97624.41
2018-02-12T14:31:45.036Z,97621.86
2018-02-12T14:34:12.589Z,97621.25
2018-02-12T14:36:40.188Z,97614.52
2018-02-12T14:39:07.721Z,97620.59
2018-02-12T14:41:35.933Z,97615.13
2018-02-12T14:44:03.413Z,97621.39
2018-02-12T14:46:30.982Z,97621.14
2018-02-12T14:48:58.493Z,97620.59
2018-02-12T14:51:26.040Z,97619.14
2018-02-12T14:53:53.542Z,97623.27
2018-02-12T14:56:21.046Z,97621.75
2018-02-12T14:58:48.677Z,97626.19
2018-02-12T15:01:16.187Z,97622.20
2018-02-12T15:03:43.740Z,97625.47
2018-02-12T15:06:11.232Z,97626.53
2018-02-12T15:08:39.369Z,97626.80
2018-02-12T15:11:06.880Z,97622.47
2018-02-12T15:13:34.806Z,97623.73
2018-02-12T15:16:02.414Z,97620.29
2018-02-12T15:18:29.897Z,97625.84
2018-02-12T15:20:57.420Z,97630.86
2018-02-12T15:23:24.917Z,97624.08
2018-02-12T15:25:52.929Z,97631.18
2018-02-12T15:28:20.514Z,97629.92
2018-02-12T15:30:48.666Z,97632.75
2018-02-12T15:33:16.198Z,97632.23
2018-02-12T15:35:43.691Z,97626.23
2018-02-12T15:38:11.271Z,97641.66
2018-02-12T15:40:38.779Z,97640.69
2018-02-12T15:43:06.460Z,97650.11
2018-02-12T15:45:33.965Z,97649.09
2018-02-12T15:48:01.498Z,97664.80
2018-02-12T15:50:29.035Z,97666.50
2018-02-12T15:52:56.585Z,97675.39
2018-02-12T15:55:24.082Z,97674.97
2018-02-12T15:57:51.575Z,97681.19
2018-02-12T16:00:19.109Z,97676.44
2018-02-12T16:02:46.625Z,97671.18
2018-02-12T16:05:14.162Z,97679.17
2018-02-12T16:07:41.671Z,97683.31
2018-02-12T16:10:09.200Z,97682.80
2018-02-12T16:12:36.691Z,97683.52
2018-02-12T16:15:04.326Z,97692.22
2018-02-12T16:17:31.899Z,97691.27
2018-02-12T16:19:59.419Z,97690.95
2018-02-12T16:22:26.958Z,97687.84
2018-02-12T16:24:54.509Z,97690.90
2018-02-12T16:27:22.043Z,97694.72
2018-02-12T16:29:49.571Z,97697.79
2018-02-12T16:32:17.323Z,97696.59
2018-02-12T16:34:44.884Z,97699.80
2018-02-12T16:37:12.432Z,97705.37
2018-02-12T16:39:40.024Z,97704.81
2018-02-12T16:42:07.607Z,97704.70
2018-02-12T16:44:35.140Z,97705.67
2018-02-12T16:47:02.626Z,97708.39
2018-02-12T16:49:30.198Z,97714.24
2018-02-12T16:51:57.707Z,97718.66
2018-02-12T16:54:25.286Z,97717.70
2018-02-12T16:56:52.830Z,97718.89
2018-02-12T16:59:20.408Z,97720.80
2018-02-12T17:01:47.884Z,97725.11
2018-02-12T17:04:15.437Z,97737.06
2018-02-12T17:06:42.963Z,97739.58
2018-02-12T17:09:10.983Z,97741.39
2018-02-12T17:11:38.501Z,97751.16
2018-02-12T17:14:06.028Z,97748.34
2018-02-12T17:16:33.567Z,97759.98
2018-02-12T17:19:01.064Z,97758.50
2018-02-12T17:21:28.755Z,97761.16
2018-02-12T17:23:56.310Z,97765.34
2018-02-12T17:26:23.818Z,97770.30
2018-02-12T17:28:51.332Z,97777.59
2018-02-12T17:31:18.829Z,97777.08
2018-02-12T17:33:46.354Z,97771.16
2018-02-12T17:36:13.882Z,97778.53
2018-02-12T17:38:43.273Z,97773.69
2018-02-12T17:41:12.677Z,97776.44
2018-02-12T17:43:42.091Z,97774.41
2018-02-12T17:46:11.761Z,97777.12
2018-02-12T17:48:41.452Z,97777.83
2018-02-12T17:51:11.212Z,97787.83
2018-02-12T17:53:40.399Z,97786.06
2018-02-12T17:56:10.108Z,97779.31
2018-02-12T17:58:39.207Z,97793.68
2018-02-12T18:01:08.678Z,97783.55
2018-02-12T18:03:37.704Z,97791.84
2018-02-12T18:06:07.484Z,97793.19
2018-02-12T18:08:37.426Z,97798.80
2018-02-12T18:11:06.928Z,97800.52
2018-02-12T18:13:36.522Z,97799.54
2018-02-12T18:16:05.159Z,97794.02
2018-02-12T18:18:34.775Z,97802.17
2018-02-12T18:21:04.171Z,97794.75
2018-02-12T18:23:33.712Z,97795.39
2018-02-12T18:26:02.768Z,97805.12
2018-02-12T18:28:30.398Z,97810.61
2018-02-12T18:31:00.558Z,97807.45
2018-02-12T18:33:29.983Z,97817.66
2018-02-12T18:35:59.429Z,97817.96
2018-02-12T18:38:28.713Z,97811.66
2018-02-12T18:40:57.702Z,97816.75
2018-02-12T18:43:26.644Z,97818.42
2018-02-12T18:45:56.345Z,97825.18
2018-02-12T18:48:25.983Z,97823.10
2018-02-12T18:50:55.394Z,97820.97
2018-02-12T18:53:25.073Z,97816.98
2018-02-12T18:55:54.036Z,97821.66
2018-02-12T18:58:23.941Z,97822.65
2018-02-12T19:00:53.334Z,97824.15
2018-02-12T19:03:22.869Z,97824.09
2018-02-12T19:05:52.899Z,97828.77
2018-02-12T19:08:22.574Z,97819.81
2018-02-12T19:10:51.882Z,97824.48
2018-02-12T19:13:20.855Z,97830.38
2018-02-12T19:15:50.268Z,97833.30
2018-02-12T19:18:19.944Z,97835.37
2018-02-12T19:20:49.773Z,97828.84
2018-02-12T19:23:18.839Z,97832.08
2018-02-12T19:25:52.516Z,97830.06
2018-02-12T19:28:21.760Z,97831.62
2018-02-12T19:30:50.839Z,97837.59
2018-02-12T19:33:20.330Z,97836.62
2018-02-12T19:35:49.051Z,97837.30
2018-02-12T19:38:18.532Z,97835.34
2018-02-12T19:40:47.901Z,97838.58
2018-02-12T19:43:17.568Z,97839.22
2018-02-12T19:45:46.938Z,97840.95
2018-02-12T19:48:16.591Z,97846.08
2018-02-12T19:50:45.695Z,97842.00
2018-02-12T19:53:19.217Z,97849.88
2018-02-12T19:55:48.711Z,97850.97
2018-02-12T19:58:18.320Z,97852.59
2018-02-12T20:00:47.811Z,97855.59
2018-02-12T20:03:17.010Z,97853.02
2018-02-12T20:05:46.748Z,97859.41
2018-02-12T20:08:15.495Z,97856.00
2018-02-12T20:10:45.430Z,97864.12
2018-02-12T20:13:15.319Z,97863.38
2018-02-12T20:15:44.485Z,97864.02
2018-02-12T20:18:14.181Z,97870.57
2018-02-12T20:20:43.334Z,97868.32
2018-02-12T20:23:12.763Z,97873.93
2018-02-12T20:25:41.879Z,97880.74
2018-02-12T20:28:11.471Z,97877.74
2018-02-12T20:30:39.564Z,97870.80
2018-02-12T20:33:09.211Z,97878.78
2018-02-12T20:35:38.394Z,97872.27
2018-02-12T20:38:08.805Z,97872.15
2018-02-12T20:40:39.072Z,97874.05
2018-02-12T20:43:09.143Z,97877.84
2018-02-12T20:45:38.112Z,97875.67
2018-02-12T20:48:07.723Z,97875.04
2018-02-12T20:50:37.937Z,97874.40
2018-02-12T20:53:08.014Z,97870.69
2018-02-12T20:55:38.146Z,97875.55
2018-02-12T20:58:08.137Z,97870.28
2018-02-12T21:00:35.610Z,97878.59
2018-02-12T21:03:03.131Z,97874.84
2018-02-12T21:05:30.680Z,97881.24
2018-02-12T21:07:58.259Z,97883.59
2018-02-12T21:10:25.778Z,97886.73
2018-02-12T21:12:53.260Z,97891.80
2018-02-12T21:15:20.985Z,97891.69
2018-02-12T21:17:48.520Z,97886.03
2018-02-12T21:20:16.159Z,97890.64
2018-02-12T21:22:43.766Z,97893.29
2018-02-12T21:25:11.361Z,97887.38
2018-02-12T21:27:38.937Z,97887.10
2018-02-12T21:30:06.537Z,97886.70
2018-02-12T21:32:34.112Z,97890.62
2018-02-12T21:35:01.608Z,97888.21
2018-02-12T21:37:29.127Z,97892.30
2018-02-12T21:39:57.464Z,97887.47
2018-02-12T21:42:25.561Z,97888.38
2018-02-12T21:44:53.123Z,97884.80
2018-02-12T21:47:20.755Z,97887.47
2018-02-12T21:49:48.260Z,97889.61
2018-02-12T21:52:15.777Z,97890.33
2018-02-12T21:54:43.268Z,97894.08
2018-02-12T21:57:11.486Z,97889.81
2018-02-12T21:59:39.169Z,97884.89
2018-02-12T22:02:07.126Z,97885.80
2018-02-12T22:04:35.903Z,97889.86
2018-02-12T22:07:04.988Z,97890.05
2018-02-12T22:09:34.991Z,97886.98
2018-02-12T22:12:08.521Z,97886.70
2018-02-12T22:14:36.324Z,97887.51
2018-02-12T22:17:03.939Z,97893.69
2018-02-12T22:19:31.818Z,97888.49
2018-02-12T22:21:59.611Z,97887.16
2018-02-12T22:24:27.417Z,97898.37
2018-02-12T22:26:55.726Z,97897.59
2018-02-12T22:29:23.375Z,97891.75
2018-02-12T22:31:50.906Z,97891.23
2018-02-12T22:34:18.587Z,97889.64
2018-02-12T22:36:46.196Z,97890.31
2018-02-12T22:39:13.737Z,97888.73
2018-02-12T22:41:41.214Z,97889.23
2018-02-12T22:44:08.794Z,97897.59
2018-02-12T22:46:36.720Z,97894.90
2018-02-12T22:49:05.541Z,97887.22
2018-02-12T22:51:33.031Z,97885.82
2018-02-12T22:54:00.532Z,97891.69
2018-02-12T22:56:28.689Z,97887.45
2018-02-12T22:58:56.317Z,97882.63
2018-02-12T23:01:23.860Z,97890.42
2018-02-12T23:03:51.553Z,97890.10
2018-02-12T23:06:19.157Z,97881.44
2018-02-12T23:08:46.718Z,97890.72
2018-02-12T23:11:14.398Z,97890.78
2018-02-12T23:13:42.066Z,97880.55
2018-02-12T23:16:10.421Z,97887.69
2018-02-12T23:18:37.999Z,97881.64
2018-02-12T23:21:05.612Z,97888.63
2018-02-12T23:23:33.188Z,97887.38
2018-02-12T23:26:01.157Z,97890.22
2018-02-12T23:28:29.228Z,97888.01
2018-02-12T23:30:56.826Z,97894.73
2018-02-12T23:33:24.350Z,97887.12
2018-02-12T23:35:52.187Z,97887.84
2018-02-12T23:38:19.695Z,97888.16
2018-02-12T23:40:47.278Z,97888.78
2018-02-12T23:43:15.045Z,97883.08
2018-02-12T23:45:42.530Z,97884.90
2018-02-12T23:48:10.127Z,97884.67
2018-02-12T23:50:37.697Z,97885.71
2018-02-12T23:53:05.317Z,97889.72
2018-02-12T23:55:32.852Z,97889.33
2018-02-12T23:58:00.399Z,97890.20
